Las horas y fechas están en horario UTC
Sumar 1 hora en el horario de Invierno y 2 horas en el de Verano

Informes METAR cercanos

 

LEZL - Sevilla (civ/Mil, Spain
Distance from station: NNE 24km
Actualización: 22/05/2019 02:00
Despejado
Despejado
 Viento del S
Viento: S 9 km/h
Temperatura: 19°C
Rocío: 14°C
Humedad: 73%
Barómetro: 1015 hPa
Clouds: Despejado
Visibility: 10 km
2019/05/22 00:00 LEZL 220000Z AUTO 19005KT 160V230 9999 NCD 19/14 Q1015
LEMO - Moron (sp-Usafb), Spain
Distance from station: E 38km
Actualización: 22/05/2019 02:00
Despejado
Despejado
 Viento del S
Viento: S 11 km/h
Temperatura: 14°C
Rocío: 11°C
Humedad: 82%
Barómetro: 1016 hPa
Resumen: Despejado
Visibility: greater than 10 km
2019/05/22 00:00 LEMO 220000Z 18006KT CAVOK 14/11 Q1016 NOSIG
LEJR - Jerez (civ/Mil), Spain
Distance from station: S 53km
Actualización: 22/05/2019 02:30
Despejado
Despejado
 Viento del calm
Viento: Calma
Temperatura: 13°C
Rocío: 11°C
Humedad: 88%
Barómetro: 1016 hPa
Resumen: Despejado
Visibility: greater than 10 km
2019/05/22 00:30 LEJR 220030Z AUTO 00000KT CAVOK 13/11 Q1016
 
LERT - Rota Naval Stati, Spain
Distance from station: SSO 71km
Actualización: 22/05/2019 02:00
Despejado
Despejado
 Viento del varies
Viento: varies 4 km/h
Temperatura: 18°C
Rocío: 15°C
Humedad: 83%
Barómetro: 1015 hPa
Resumen: Despejado
Visibility: greater than 10 km
2019/05/22 00:00 LERT 220000Z VRB02KT CAVOK 18/15 Q1015 NOSIG
LEBA - Cordoba Airport, Spain
Distance from station: ENE 128km
Actualización: 22/05/2019 02:00
Despejado
Despejado
 Viento del OSO
Viento: OSO 9 km/h
Temperatura: 18°C
Rocío: 11°C
Humedad: 64%
Barómetro: 1016 hPa
Clouds: Despejado
Visibility: 10 km
2019/05/22 00:00 LEBA 220000Z AUTO 24005KT 210V270 9999 NCD 18/11 Q1016
LXGB - Gibraltar (civ/M, Gibraltar
Distance from station: SSE 137km
Actualización: 22/05/2019 01:50
Despejado
Despejado
 Viento del N
Viento: N 6 km/h
Temperatura: 19°C
Rocío: 14°C
Humedad: 73%
Barómetro: 1016 hPa
Clouds: Despejado
Visibility: 10 km
2019/05/21 23:50 LXGB 212350Z AUTO 01003KT 9999 // NCD 19/14 Q1016
 
LEMG - Malaga (civ/Mil), Spain
Distance from station: ESE 150km
Actualización: 22/05/2019 02:00
Despejado
Despejado
 Viento del ESE
Viento: ESE 6 km/h
Temperatura: 17°C
Rocío: 14°C
Humedad: 83%
Barómetro: 1017 hPa
Resumen: Despejado
Visibility: greater than 10 km
2019/05/22 00:00 LEMG 220000Z 11003KT CAVOK 17/14 Q1017 NOSIG
GMTT - Tangier/Boukhalf, Morocco
Distance from station: S 169km
Actualización: 22/05/2019 02:00
Despejado
Despejado
 Viento del varies
Viento: varies 4 km/h
Temperatura: 13°C
Rocío: 12°C
Humedad: 94%
Barómetro: 1016 hPa
Resumen: Despejado
Visibility: greater than 10 km
2019/05/22 00:00 GMTT 220000Z VRB02KT CAVOK 13/12 Q1016 NOSIG
LPFR - Faro, Portugal
Distance from station: O 172km
Actualización: 22/05/2019 02:00
Despejado
Despejado
 Viento del ONO
Viento: ONO 13 km/h
Temperatura: 17°C
Rocío: 12°C
Humedad: 73%
Barómetro: 1016 hPa
Resumen: Despejado
Visibility: greater than 10 km
2019/05/22 00:00 LPFR 220000Z 29007KT CAVOK 17/12 Q1016
 
LPBJ - Beja (por/Ger-Af, Portugal
Distance from station: ONO 192km
Actualización: 22/05/2019 02:00
Despejado
Despejado
 Viento del ONO
Viento: ONO 11 km/h
Temperatura: 13°C
Rocío: 12°C
Humedad: 94%
Barómetro: 1017 hPa
Resumen: Despejado
Visibility: greater than 10 km
2019/05/22 00:00 LPBJ 220000Z 30006KT CAVOK 13/12 Q1017
LEBZ - Talavera Ab/Bada, Spain
Distance from station: NNO 194km
Actualización: 21/05/2019 21:00
NOT Current
Few Clouds
Few Clouds
 Viento del O
Viento: O 15 km/h
Temperatura: 25°C
Rocío: 10°C
Humedad: 39%
Barómetro: 1014 hPa
Clouds: Few Clouds
Visibility: 10 km
Cloud details: Few Clouds 1372 m
2019/05/21 19:00 LEBZ 211900Z 27008KT 9999 FEW045 25/10 Q1014
LEMD - Madrid/Barajas, Spain
Distance from station: NE 415km
Actualización: 22/05/2019 02:00
Despejado
Despejado
 Viento del NE
Viento: NE 6 km/h
Temperatura: 16°C
Rocío: 4°C
Humedad: 45%
Barómetro: 1017 hPa
Resumen: Despejado
Visibility: greater than 10 km
2019/05/22 00:00 LEMD 220000Z 04003KT 350V110 CAVOK 16/04 Q1017 NOSIG